Time;durP1;ratioP1;P1;durP2;ratioP2;P2;SDS_P1;SDS_P2;PMS_P1;PMS_P2;Temp;Humidity;BMP_temperature;BMP_pressure;BME280_temperature;BME280_humidity;BME280_pressure;Samples;Min_cycle;Max_cycle;Signal;HPM_P1;HPM_P2
2022/01/29 00:01:32;;;;;;;53.80;28.20;;;7.60;99.90;;;;;;5059945;28;20135;-82
2022/01/29 00:03:58;;;;;;;46.33;28.02;;;7.50;99.90;;;;;;5075824;28;20103;-82
2022/01/29 00:06:24;;;;;;;48.50;28.27;;;7.50;99.90;;;;;;5076500;28;20524;-83
2022/01/29 00:08:52;;;;;;;48.08;28.67;;;7.50;99.90;;;;;;5076493;28;20124;-82
2022/01/29 00:11:18;;;;;;;49.65;29.55;;;7.50;99.90;;;;;;5076440;28;20024;-82
2022/01/29 00:13:44;;;;;;;49.65;27.60;;;7.60;99.90;;;;;;5060271;28;20058;-83
2022/01/29 00:16:10;;;;;;;52.97;29.05;;;7.50;99.90;;;;;;5076891;28;20023;-82
2022/01/29 00:18:36;;;;;;;45.17;26.73;;;7.50;99.90;;;;;;5094904;28;20529;-82
2022/01/29 00:21:02;;;;;;;51.05;29.23;;;7.50;99.90;;;;;;5076995;28;20032;-82
2022/01/29 00:23:28;;;;;;;52.42;29.08;;;7.50;99.90;;;;;;5077175;28;20070;-83
2022/01/29 00:25:53;;;;;;;49.10;26.83;;;7.50;99.90;;;;;;5077676;28;20024;-83
2022/01/29 00:28:19;;;;;;;51.08;30.95;;;7.50;99.90;;;;;;5060657;28;20123;-82
2022/01/29 00:30:45;;;;;;;59.03;30.55;;;7.50;99.90;;;;;;5066434;28;20062;-83
2022/01/29 00:33:12;;;;;;;51.90;28.90;;;7.50;99.90;;;;;;5118918;28;20013;-82
2022/01/29 00:35:38;;;;;;;53.88;30.17;;;7.50;99.90;;;;;;5084059;28;20012;-84
2022/01/29 00:38:04;;;;;;;59.05;32.63;;;7.50;99.90;;;;;;5101182;28;20024;-82
2022/01/29 00:40:31;;;;;;;55.65;31.00;;;7.50;99.90;;;;;;5084354;28;20031;-90
2022/01/29 00:42:58;;;;;;;62.92;31.88;;;7.50;99.90;;;;;;5067384;28;20028;-82
2022/01/29 00:45:24;;;;;;;54.78;31.27;;;7.50;99.90;;;;;;5070482;28;20032;-82
2022/01/29 00:47:50;;;;;;;59.50;31.60;;;7.50;99.90;;;;;;5075966;28;20338;-82
2022/01/29 00:50:16;;;;;;;63.78;33.88;;;7.50;99.90;;;;;;5075616;28;20028;-81
2022/01/29 00:52:41;;;;;;;62.17;32.53;;;7.50;99.90;;;;;;5059150;28;20024;-82
2022/01/29 00:55:09;;;;;;;60.25;32.35;;;7.40;99.90;;;;;;5075734;28;20107;-81
2022/01/29 00:57:37;;;;;;;56.72;32.35;;;7.40;99.90;;;;;;5075588;28;20035;-82
2022/01/29 01:00:09;;;;;;;56.42;32.97;;;7.40;99.90;;;;;;5059696;28;20031;-81
2022/01/29 01:02:35;;;;;;;55.22;31.00;;;7.40;99.90;;;;;;5059388;28;20465;-82
2022/01/29 01:05:01;;;;;;;57.33;31.52;;;7.40;99.90;;;;;;5051059;28;20035;-82
2022/01/29 01:07:27;;;;;;;55.75;31.23;;;7.40;99.90;;;;;;5075742;28;20028;-82
2022/01/29 01:09:52;;;;;;;59.97;31.35;;;7.40;99.90;;;;;;5058704;28;20439;-82
2022/01/29 01:12:18;;;;;;;59.47;32.33;;;7.40;99.90;;;;;;5058775;28;20448;-81
2022/01/29 01:14:44;;;;;;;59.08;31.35;;;7.40;99.90;;;;;;5075554;28;20063;-82
2022/01/29 01:17:10;;;;;;;57.97;33.28;;;7.40;99.90;;;;;;5075295;28;20020;-83
2022/01/29 01:19:36;;;;;;;57.33;32.63;;;7.40;99.90;;;;;;5075434;28;20147;-83
2022/01/29 01:22:02;;;;;;;56.40;32.13;;;7.40;99.90;;;;;;5075368;28;20025;-83
2022/01/29 01:24:27;;;;;;;51.67;29.50;;;7.40;99.90;;;;;;5075576;28;20060;-83
2022/01/29 01:26:53;;;;;;;58.08;30.75;;;7.40;99.90;;;;;;5075090;28;20020;-83
2022/01/29 01:29:19;;;;;;;55.95;28.88;;;7.50;99.90;;;;;;5058638;28;20131;-84
2022/01/29 01:31:45;;;;;;;55.97;29.92;;;7.50;99.90;;;;;;5075420;28;20078;-83
2022/01/29 01:34:13;;;;;;;59.65;34.47;;;7.40;99.90;;;;;;5075338;28;20372;-84
2022/01/29 01:36:50;;;;;;;54.10;30.30;;;7.50;99.90;;;;;;5092887;28;20020;-84
2022/01/29 01:39:19;;;;;;;60.50;32.15;;;7.50;99.90;;;;;;5060151;28;20032;-83
2022/01/29 01:41:55;;;;;;;64.28;30.38;;;7.50;99.90;;;;;;5074823;28;20021;-83
2022/01/29 01:44:21;;;;;;;54.80;31.63;;;7.50;99.90;;;;;;5076957;28;20024;-83
2022/01/29 01:46:47;;;;;;;64.32;32.50;;;7.50;99.90;;;;;;5074798;28;20028;-84
2022/01/29 01:49:15;;;;;;;58.60;32.17;;;7.50;99.90;;;;;;5075240;28;20051;-84
2022/01/29 01:51:42;;;;;;;62.83;31.95;;;7.50;99.90;;;;;;5058623;28;20123;-83
2022/01/29 01:54:08;;;;;;;56.45;30.92;;;7.50;99.90;;;;;;5058596;28;20020;-83
2022/01/29 01:56:34;;;;;;;54.28;29.15;;;7.50;99.90;;;;;;5058429;28;20135;-83
2022/01/29 01:58:59;;;;;;;56.70;29.90;;;7.60;99.90;;;;;;5058143;28;20123;-84
2022/01/29 02:01:25;;;;;;;49.70;29.52;;;7.50;99.90;;;;;;5058263;28;20063;-83
2022/01/29 02:03:51;;;;;;;53.47;31.52;;;7.60;99.90;;;;;;5057947;28;20116;-84
2022/01/29 02:06:18;;;;;;;59.25;30.83;;;7.60;99.90;;;;;;5058211;28;20035;-83
2022/01/29 02:08:44;;;;;;;57.38;31.35;;;7.60;99.90;;;;;;5074861;28;20063;-84
2022/01/29 02:11:10;;;;;;;54.53;29.42;;;7.60;99.90;;;;;;5074979;28;20059;-83
2022/01/29 02:13:36;;;;;;;56.70;30.58;;;7.60;99.90;;;;;;5074906;28;20020;-83
2022/01/29 02:16:02;;;;;;;44.90;29.13;;;7.60;99.90;;;;;;5074618;28;20043;-84
2022/01/29 02:18:28;;;;;;;51.25;29.88;;;7.70;99.90;;;;;;5075124;28;20067;-83
2022/01/29 02:20:54;;;;;;;55.80;33.45;;;7.60;99.90;;;;;;5074460;28;20028;-84
2022/01/29 02:23:20;;;;;;;54.45;32.33;;;7.60;99.90;;;;;;5057580;28;20429;-83
2022/01/29 02:25:48;;;;;;;56.20;31.67;;;7.60;99.90;;;;;;5057694;28;20024;-84
2022/01/29 02:28:18;;;;;;;46.80;29.67;;;7.60;99.90;;;;;;5076693;28;20032;-83
2022/01/29 02:30:47;;;;;;;52.45;30.63;;;7.60;99.90;;;;;;5078092;28;20024;-84
2022/01/29 02:33:15;;;;;;;47.25;28.92;;;7.60;99.90;;;;;;5078265;28;20043;-83
2022/01/29 02:35:44;;;;;;;57.00;32.28;;;7.60;99.90;;;;;;5078187;28;20093;-86
2022/01/29 02:38:11;;;;;;;60.38;32.28;;;7.60;99.90;;;;;;5078282;28;20093;-83
2022/01/29 02:40:45;;;;;;;58.15;32.95;;;7.60;99.90;;;;;;5096307;28;20099;-83
2022/01/29 02:43:13;;;;;;;50.97;32.38;;;7.60;99.90;;;;;;5096358;28;20111;-83
2022/01/29 02:45:40;;;;;;;48.33;30.15;;;7.60;99.90;;;;;;5096291;28;20025;-83
2022/01/29 02:48:06;;;;;;;47.90;28.65;;;7.60;99.90;;;;;;5061549;28;20028;-83
2022/01/29 02:50:32;;;;;;;49.95;29.48;;;7.60;99.90;;;;;;5077908;28;20426;-83
2022/01/29 02:52:57;;;;;;;45.75;28.08;;;7.60;99.90;;;;;;5077854;28;20123;-83
2022/01/29 02:55:24;;;;;;;52.97;31.27;;;7.60;99.90;;;;;;5061190;28;20043;-83
2022/01/29 02:57:50;;;;;;;50.17;30.20;;;7.60;99.90;;;;;;5077796;28;20032;-83
2022/01/29 03:00:16;;;;;;;51.75;31.02;;;7.60;99.90;;;;;;5060865;28;20097;-83
2022/01/29 03:02:41;;;;;;;50.38;29.40;;;7.60;99.90;;;;;;5078159;28;20024;-83
2022/01/29 03:05:07;;;;;;;47.85;28.73;;;7.60;99.90;;;;;;5060766;28;20081;-84
2022/01/29 03:07:33;;;;;;;51.30;29.40;;;7.60;99.90;;;;;;5077683;28;20130;-83
2022/01/29 03:09:58;;;;;;;40.25;25.90;;;7.60;99.90;;;;;;5060728;28;20047;-83
2022/01/29 03:12:24;;;;;;;43.47;27.80;;;7.60;99.90;;;;;;5061142;28;20020;-82
2022/01/29 03:14:50;;;;;;;49.75;29.17;;;7.60;99.90;;;;;;5060702;28;20070;-83
2022/01/29 03:17:15;;;;;;;41.40;26.42;;;7.60;99.90;;;;;;5077234;28;20051;-83
2022/01/29 03:19:41;;;;;;;41.05;25.50;;;7.60;99.90;;;;;;5060704;28;20036;-83
2022/01/29 03:22:07;;;;;;;45.60;27.55;;;7.70;99.90;;;;;;5060232;28;20392;-83
2022/01/29 03:24:32;;;;;;;43.42;27.27;;;7.70;99.90;;;;;;5047497;28;20053;-82
2022/01/29 03:26:58;;;;;;;39.95;24.73;;;7.60;99.90;;;;;;5057007;28;20024;-83
2022/01/29 03:29:24;;;;;;;39.70;25.92;;;7.70;99.90;;;;;;5057059;28;20027;-83
2022/01/29 03:31:49;;;;;;;39.63;26.23;;;7.60;99.90;;;;;;5040054;28;20062;-84
2022/01/29 03:34:15;;;;;;;40.83;26.30;;;7.60;99.90;;;;;;5057504;28;20024;-83
2022/01/29 03:36:40;;;;;;;39.72;24.33;;;7.60;99.90;;;;;;5040312;28;20052;-83
2022/01/29 03:39:06;;;;;;;41.65;24.77;;;7.60;99.90;;;;;;5075989;28;20032;-83
2022/01/29 03:41:32;;;;;;;43.10;26.50;;;7.60;99.90;;;;;;5076690;28;20048;-83
2022/01/29 03:44:05;;;;;;;38.65;24.38;;;7.60;99.90;;;;;;5076909;28;20111;-83
2022/01/29 03:46:32;;;;;;;43.63;26.70;;;7.60;99.90;;;;;;5061778;28;20353;-83
2022/01/29 03:48:57;;;;;;;37.13;24.48;;;7.60;99.90;;;;;;5060086;28;20035;-83
2022/01/29 03:51:23;;;;;;;37.60;25.52;;;7.60;99.90;;;;;;5059774;28;20020;-83
2022/01/29 03:53:48;;;;;;;38.38;24.15;;;7.60;99.90;;;;;;5076822;28;20028;-83
2022/01/29 03:56:14;;;;;;;40.78;24.98;;;7.60;99.90;;;;;;5076409;28;20032;-82
2022/01/29 03:58:40;;;;;;;44.58;27.27;;;7.60;99.90;;;;;;5059661;28;20051;-84
2022/01/29 04:01:05;;;;;;;39.38;25.42;;;7.70;99.90;;;;;;5076792;28;20475;-83
2022/01/29 04:03:32;;;;;;;47.83;28.35;;;7.70;99.90;;;;;;5076531;28;20028;-83
2022/01/29 04:05:58;;;;;;;41.25;25.05;;;7.70;99.90;;;;;;5076189;28;20077;-83
2022/01/29 04:08:25;;;;;;;40.88;25.63;;;7.60;99.90;;;;;;5076508;28;20040;-83
2022/01/29 04:10:51;;;;;;;43.47;26.83;;;7.60;99.90;;;;;;5076821;28;20028;-84
2022/01/29 04:13:21;;;;;;;42.03;27.42;;;7.60;99.90;;;;;;5076264;28;20051;-83
2022/01/29 04:15:48;;;;;;;49.55;27.95;;;7.70;99.90;;;;;;5076508;28;20371;-83
2022/01/29 04:18:14;;;;;;;45.83;28.35;;;7.70;99.90;;;;;;5076310;28;20040;-83
2022/01/29 04:20:39;;;;;;;48.60;28.88;;;7.70;99.90;;;;;;5059535;28;20131;-84
2022/01/29 04:23:08;;;;;;;42.78;27.95;;;7.70;99.90;;;;;;5075788;28;20135;-83
2022/01/29 04:25:34;;;;;;;46.95;27.98;;;7.70;99.90;;;;;;5059543;28;20032;-83
2022/01/29 04:28:00;;;;;;;51.75;30.80;;;7.70;99.90;;;;;;5059225;28;20032;-83
2022/01/29 04:30:29;;;;;;;45.63;28.02;;;7.70;99.90;;;;;;5059423;28;20024;-83
2022/01/29 04:33:14;;;;;;;45.58;28.48;;;7.70;99.90;;;;;;5059609;28;20047;-83
2022/01/29 04:35:39;;;;;;;54.08;31.85;;;7.80;99.90;;;;;;5061359;28;20357;-83
2022/01/29 04:38:05;;;;;;;48.08;29.10;;;7.80;99.90;;;;;;5059052;28;20097;-83
2022/01/29 04:40:31;;;;;;;46.70;30.17;;;7.80;99.90;;;;;;5075658;28;20103;-83
2022/01/29 04:42:57;;;;;;;54.65;32.35;;;7.80;99.90;;;;;;5075392;28;20053;-84
2022/01/29 04:45:22;;;;;;;64.53;33.15;;;7.80;99.90;;;;;;5059269;28;20456;-83
2022/01/29 04:47:48;;;;;;;64.22;34.03;;;7.80;99.90;;;;;;5059100;28;20032;-83
2022/01/29 04:50:14;;;;;;;61.25;31.80;;;7.80;99.90;;;;;;5093430;28;20043;-83
2022/01/29 04:52:39;;;;;;;59.33;32.95;;;7.80;99.90;;;;;;5059114;28;20082;-83
2022/01/29 04:55:06;;;;;;;63.72;34.85;;;7.80;99.90;;;;;;5058954;28;20483;-83
2022/01/29 04:57:32;;;;;;;66.78;33.83;;;7.80;99.90;;;;;;5075678;28;20533;-83
2022/01/29 04:59:59;;;;;;;61.22;34.63;;;7.90;99.90;;;;;;5058716;28;20028;-84
2022/01/29 05:02:24;;;;;;;64.80;35.70;;;7.90;99.90;;;;;;5093780;28;20032;-82
2022/01/29 05:04:50;;;;;;;63.20;33.92;;;7.90;99.90;;;;;;5058940;28;20380;-83
2022/01/29 05:07:16;;;;;;;59.45;33.60;;;7.90;99.90;;;;;;5058515;28;20369;-83
2022/01/29 05:09:41;;;;;;;74.47;35.95;;;7.90;99.90;;;;;;5075408;28;20115;-83
2022/01/29 05:12:08;;;;;;;68.70;34.60;;;8.00;99.90;;;;;;5075324;28;20035;-83
2022/01/29 05:15:02;;;;;;;65.22;35.30;;;8.00;99.90;;;;;;5058617;28;20024;-83
2022/01/29 05:28:03;;;;;;;65.35;36.35;;;8.00;99.90;;;;;;5077700;28;20089;-84
2022/01/29 05:30:28;;;;;;;62.90;34.22;;;8.10;99.90;;;;;;5075415;28;20059;-84
2022/01/29 05:32:54;;;;;;;66.90;35.05;;;8.10;99.90;;;;;;5075241;28;20067;-83
2022/01/29 05:35:20;;;;;;;66.45;35.05;;;8.10;99.90;;;;;;5058407;28;20039;-82
2022/01/29 05:37:49;;;;;;;66.95;34.90;;;8.10;99.90;;;;;;5075068;28;20021;-84
2022/01/29 05:40:15;;;;;;;69.85;36.28;;;8.10;99.90;;;;;;5093150;28;20016;-83
2022/01/29 05:42:41;;;;;;;62.55;35.13;;;8.10;99.90;;;;;;5075017;28;20095;-83
2022/01/29 05:45:07;;;;;;;76.60;35.78;;;8.20;99.90;;;;;;5075008;28;20028;-83
2022/01/29 05:47:35;;;;;;;71.63;35.28;;;8.20;99.90;;;;;;5075146;28;20047;-84
2022/01/29 05:50:01;;;;;;;69.88;34.70;;;8.20;99.90;;;;;;5058700;28;20056;-83
2022/01/29 05:52:26;;;;;;;70.00;34.92;;;8.20;99.90;;;;;;5058277;28;20035;-83
2022/01/29 05:54:52;;;;;;;72.85;35.13;;;8.20;99.90;;;;;;5058313;28;20375;-83
2022/01/29 05:57:18;;;;;;;71.53;34.75;;;8.20;99.90;;;;;;5092905;28;20427;-83
2022/01/29 05:59:43;;;;;;;66.20;33.78;;;8.30;99.90;;;;;;5058167;28;20040;-83
2022/01/29 06:02:09;;;;;;;73.78;35.30;;;8.30;99.90;;;;;;5058546;28;20357;-83
2022/01/29 06:04:35;;;;;;;64.75;33.47;;;8.30;99.90;;;;;;5079031;28;20032;-83
2022/01/29 06:07:00;;;;;;;64.50;33.00;;;8.30;99.90;;;;;;5062082;28;20020;-83
2022/01/29 06:09:26;;;;;;;66.20;34.10;;;8.30;99.90;;;;;;5078630;28;20197;-83
2022/01/29 06:11:52;;;;;;;67.20;32.28;;;8.30;99.90;;;;;;5078751;28;20035;-84
2022/01/29 06:14:17;;;;;;;73.38;36.03;;;8.40;99.90;;;;;;5061921;28;20055;-83
2022/01/29 06:16:43;;;;;;;56.30;30.27;;;8.40;99.90;;;;;;5062009;28;20469;-84
2022/01/29 06:19:08;;;;;;;62.25;34.22;;;8.40;99.90;;;;;;5061647;28;20043;-84
2022/01/29 06:21:34;;;;;;;58.50;31.90;;;8.40;99.90;;;;;;5061931;28;20025;-83
2022/01/29 06:24:02;;;;;;;61.05;32.35;;;8.50;99.90;;;;;;5061527;28;20056;-83
2022/01/29 06:26:27;;;;;;;51.88;30.23;;;8.50;99.90;;;;;;5078739;28;20114;-83
2022/01/29 06:28:53;;;;;;;52.90;30.10;;;8.50;99.90;;;;;;5096272;28;20111;-83
2022/01/29 06:31:18;;;;;;;56.28;31.25;;;8.50;99.90;;;;;;5078189;28;20041;-84
2022/01/29 06:33:44;;;;;;;57.67;31.55;;;8.50;99.90;;;;;;5061267;28;20484;-83
2022/01/29 06:36:10;;;;;;;50.55;29.45;;;8.60;99.90;;;;;;5061317;28;20024;-83
2022/01/29 06:38:36;;;;;;;51.58;28.73;;;8.60;99.90;;;;;;5077855;28;20032;-83
2022/01/29 06:41:02;;;;;;;54.55;29.67;;;8.60;99.90;;;;;;5061457;28;20028;-83
2022/01/29 06:43:28;;;;;;;44.75;26.75;;;8.60;99.90;;;;;;5078461;28;20107;-83
2022/01/29 06:45:54;;;;;;;55.15;28.15;;;8.60;99.90;;;;;;5061311;28;20024;-80
2022/01/29 06:48:20;;;;;;;46.30;28.10;;;8.70;99.90;;;;;;5077827;28;20035;-80
2022/01/29 06:50:46;;;;;;;45.40;27.42;;;8.70;99.90;;;;;;5077976;28;20024;-81
2022/01/29 06:53:12;;;;;;;47.88;27.33;;;8.70;99.90;;;;;;5095751;28;20065;-83
2022/01/29 06:55:38;;;;;;;39.72;23.27;;;8.70;99.90;;;;;;5095971;28;20385;-82
2022/01/29 06:58:04;;;;;;;41.10;25.50;;;8.70;99.90;;;;;;5060779;28;20044;-82
2022/01/29 07:00:30;;;;;;;45.45;27.35;;;8.80;99.90;;;;;;5077851;28;20058;-81
2022/01/29 07:02:56;;;;;;;45.08;26.58;;;8.70;99.90;;;;;;5061107;28;20494;-82
2022/01/29 07:05:21;;;;;;;40.45;25.02;;;8.80;99.90;;;;;;5077799;28;20024;-82
2022/01/29 07:07:47;;;;;;;39.97;23.95;;;8.80;99.90;;;;;;5065261;28;20030;-82
2022/01/29 07:10:13;;;;;;;35.40;22.90;;;8.80;99.90;;;;;;5074420;28;20048;-85
2022/01/29 07:12:41;;;;;;;41.95;24.90;;;8.90;99.90;;;;;;5073842;28;20060;-82
2022/01/29 07:15:09;;;;;;;41.47;23.48;;;8.90;99.90;;;;;;5057082;28;20511;-82
2022/01/29 07:17:35;;;;;;;44.88;24.85;;;8.90;99.90;;;;;;5073805;28;20059;-82
2022/01/29 07:20:01;;;;;;;36.35;22.05;;;8.90;99.90;;;;;;5040711;28;20058;-83
2022/01/29 07:22:27;;;;;;;34.95;22.63;;;9.00;99.90;;;;;;5073842;28;20028;-82
2022/01/29 07:24:53;;;;;;;38.53;23.42;;;9.00;99.90;;;;;;5057124;28;20496;-82
2022/01/29 07:27:18;;;;;;;36.50;22.73;;;9.00;99.90;;;;;;5057157;28;20017;-83
2022/01/29 07:29:44;;;;;;;31.35;20.70;;;9.00;99.90;;;;;;5073912;28;20044;-83
2022/01/29 07:32:11;;;;;;;36.72;21.45;;;9.00;99.90;;;;;;5073949;28;20032;-82
2022/01/29 07:34:37;;;;;;;33.72;21.75;;;9.00;99.90;;;;;;5057119;28;20051;-82
2022/01/29 07:37:03;;;;;;;39.83;21.30;;;9.10;99.90;;;;;;5057021;28;20070;-82
2022/01/29 07:39:29;;;;;;;31.05;19.17;;;9.10;99.90;;;;;;5056782;28;20086;-82
2022/01/29 07:41:55;;;;;;;31.45;18.75;;;9.10;99.90;;;;;;5075278;28;20024;-82
2022/01/29 07:44:21;;;;;;;28.40;18.17;;;9.10;99.90;;;;;;5073746;28;20017;-82
2022/01/29 07:46:47;;;;;;;28.92;18.73;;;9.10;99.90;;;;;;5074736;28;20036;-82
2022/01/29 07:49:13;;;;;;;28.35;17.80;;;9.10;99.90;;;;;;5056978;28;20461;-82
2022/01/29 07:51:39;;;;;;;28.98;17.48;;;9.10;99.90;;;;;;5056313;28;20449;-80
2022/01/29 07:54:05;;;;;;;24.92;16.58;;;9.10;99.90;;;;;;5056579;28;20043;-83
2022/01/29 07:56:31;;;;;;;26.58;16.73;;;9.20;99.90;;;;;;5073019;28;20060;-83
2022/01/29 07:58:57;;;;;;;29.40;16.17;;;9.20;99.90;;;;;;5056367;28;20068;-83
2022/01/29 08:01:22;;;;;;;23.95;15.80;;;9.20;99.90;;;;;;5056094;28;20036;-83
2022/01/29 08:03:50;;;;;;;28.08;16.27;;;9.20;99.90;;;;;;5072922;28;20029;-83
2022/01/29 08:06:17;;;;;;;23.40;14.48;;;9.30;99.90;;;;;;5074226;28;20031;-82
2022/01/29 08:08:43;;;;;;;25.15;15.95;;;9.20;99.90;;;;;;5056236;28;20043;-83
2022/01/29 08:11:11;;;;;;;21.60;15.23;;;9.30;99.90;;;;;;5056099;28;20025;-82
2022/01/29 08:13:37;;;;;;;23.45;15.15;;;9.30;99.90;;;;;;5056107;28;20020;-82
2022/01/29 08:16:03;;;;;;;23.05;15.18;;;9.30;99.90;;;;;;5072444;28;20039;-82
2022/01/29 08:18:29;;;;;;;22.70;15.82;;;9.30;99.90;;;;;;5056220;28;20060;-83
2022/01/29 08:20:54;;;;;;;24.17;15.30;;;9.30;99.90;;;;;;5056082;28;20442;-82
2022/01/29 08:23:21;;;;;;;24.40;15.80;;;9.40;99.90;;;;;;5072663;28;20094;-87
2022/01/29 08:25:48;;;;;;;21.67;14.65;;;9.40;99.90;;;;;;5055194;28;20384;-82
2022/01/29 08:28:14;;;;;;;26.50;16.65;;;9.40;99.90;;;;;;5072581;28;20033;-82
2022/01/29 08:30:41;;;;;;;24.40;15.27;;;9.40;99.90;;;;;;5072482;28;20078;-83
2022/01/29 08:33:07;;;;;;;25.60;15.57;;;9.40;99.90;;;;;;5055550;28;20028;-83
2022/01/29 08:35:34;;;;;;;26.05;17.25;;;9.40;99.90;;;;;;5072551;28;20443;-82
2022/01/29 08:38:00;;;;;;;24.45;14.10;;;9.40;99.90;;;;;;5055649;28;20037;-83
2022/01/29 08:40:26;;;;;;;22.05;14.80;;;9.40;99.90;;;;;;5072154;28;20495;-83
2022/01/29 08:42:53;;;;;;;24.75;15.48;;;9.50;99.90;;;;;;5055173;28;20021;-82
2022/01/29 08:45:19;;;;;;;22.38;14.32;;;9.50;99.90;;;;;;5073789;28;20032;-82
2022/01/29 08:47:45;;;;;;;20.85;15.05;;;9.60;99.90;;;;;;5055305;28;20016;-83
2022/01/29 08:50:13;;;;;;;25.00;15.13;;;9.60;99.90;;;;;;5072435;28;20036;-82
2022/01/29 08:52:39;;;;;;;20.92;13.30;;;9.60;99.90;;;;;;5073369;28;20021;-82
2022/01/29 08:55:07;;;;;;;20.50;13.98;;;9.60;99.90;;;;;;5073242;28;20021;-81
2022/01/29 08:57:33;;;;;;;22.90;14.18;;;9.60;99.90;;;;;;5071771;28;20025;-82
2022/01/29 09:00:00;;;;;;;19.55;13.02;;;9.60;99.90;;;;;;5054812;28;20043;-82
2022/01/29 09:02:26;;;;;;;21.83;14.40;;;9.70;99.90;;;;;;5055420;28;20381;-82
2022/01/29 09:04:55;;;;;;;21.08;14.77;;;9.70;99.90;;;;;;5073620;28;20032;-82
2022/01/29 09:07:21;;;;;;;22.65;14.07;;;9.70;99.90;;;;;;5073096;28;20487;-82
2022/01/29 09:09:46;;;;;;;26.38;15.27;;;9.70;99.90;;;;;;5054857;28;20119;-82
2022/01/29 09:12:13;;;;;;;21.77;14.68;;;9.70;99.90;;;;;;5055144;28;20071;-82
2022/01/29 09:14:39;;;;;;;23.83;15.13;;;9.70;99.90;;;;;;5055129;28;20032;-82
2022/01/29 09:17:06;;;;;;;22.95;14.55;;;9.70;99.90;;;;;;5055172;28;20128;-82
2022/01/29 09:19:32;;;;;;;24.08;14.50;;;9.80;99.90;;;;;;5072007;28;20123;-82
2022/01/29 09:21:58;;;;;;;22.15;14.00;;;9.80;99.90;;;;;;5055139;28;20020;-84
2022/01/29 09:24:23;;;;;;;17.30;13.48;;;9.80;99.90;;;;;;5073297;28;20371;-83
2022/01/29 09:26:49;;;;;;;21.35;13.57;;;9.80;99.90;;;;;;5055032;28;20429;-84
2022/01/29 09:29:15;;;;;;;22.10;13.85;;;9.80;99.90;;;;;;5071644;28;20029;-82
2022/01/29 09:31:41;;;;;;;23.88;15.10;;;9.80;99.90;;;;;;5054935;28;20028;-83
2022/01/29 09:34:06;;;;;;;22.55;13.77;;;9.80;99.90;;;;;;5055117;28;20021;-82
2022/01/29 09:36:32;;;;;;;18.52;13.98;;;9.80;99.90;;;;;;5074080;28;20107;-84
2022/01/29 09:38:58;;;;;;;21.30;13.80;;;9.90;99.90;;;;;;5059217;28;20105;-83
2022/01/29 09:41:25;;;;;;;17.48;13.07;;;9.90;99.90;;;;;;5042442;28;20399;-84
2022/01/29 09:43:55;;;;;;;18.42;12.85;;;9.90;99.90;;;;;;5042483;28;20024;-82
2022/01/29 09:46:21;;;;;;;18.30;13.18;;;9.90;99.90;;;;;;5059654;28;20025;-82
2022/01/29 09:48:47;;;;;;;16.27;12.02;;;10.00;99.90;;;;;;5058473;28;20036;-83
2022/01/29 09:51:13;;;;;;;18.58;12.07;;;10.00;99.90;;;;;;5041233;28;20017;-83
2022/01/29 09:53:43;;;;;;;14.98;12.00;;;10.00;99.90;;;;;;5058872;28;20468;-83
2022/01/29 09:56:13;;;;;;;15.48;11.30;;;10.00;99.90;;;;;;5077142;28;20024;-83
2022/01/29 09:58:39;;;;;;;17.45;11.77;;;10.10;99.90;;;;;;5058414;28;20143;-83
2022/01/29 10:01:05;;;;;;;14.80;10.13;;;10.00;99.90;;;;;;5025953;28;20024;-84
2022/01/29 10:03:30;;;;;;;15.90;10.57;;;10.00;99.90;;;;;;5058796;28;20036;-83
2022/01/29 10:06:00;;;;;;;15.90;9.82;;;10.10;99.90;;;;;;5058525;28;20358;-82
2022/01/29 10:08:27;;;;;;;15.30;10.13;;;10.10;99.90;;;;;;5059333;28;20350;-83
2022/01/29 10:10:58;;;;;;;14.13;8.63;;;10.20;99.90;;;;;;5058057;28;20039;-83
2022/01/29 10:13:30;;;;;;;15.48;8.95;;;10.20;99.90;;;;;;5058303;28;20024;-82
2022/01/29 10:16:10;;;;;;;13.85;8.32;;;10.20;99.90;;;;;;5057969;28;20467;-82
2022/01/29 10:18:37;;;;;;;14.00;7.65;;;10.20;99.90;;;;;;5058519;28;20123;-83
2022/01/29 10:21:24;;;;;;;10.32;7.68;;;10.20;99.90;;;;;;5058642;28;20115;-82
2022/01/29 10:24:18;;;;;;;13.35;7.75;;;10.30;99.90;;;;;;5076042;28;20072;-83
2022/01/29 10:26:46;;;;;;;12.55;7.10;;;10.20;99.90;;;;;;5057221;28;20491;-83
2022/01/29 10:29:26;;;;;;;11.95;6.88;;;10.30;99.90;;;;;;5058493;28;20429;-83
2022/01/29 10:31:57;;;;;;;13.38;6.75;;;10.30;99.90;;;;;;5041439;28;20119;-84
2022/01/29 10:34:28;;;;;;;12.13;6.75;;;10.30;99.90;;;;;;5058307;28;20078;-83
2022/01/29 10:37:14;;;;;;;;;;;10.40;99.90;;;;;;5058310;28;20103;-83
2022/01/29 10:39:41;;;;;;;10.27;6.70;;;10.40;99.90;;;;;;5043561;28;19918;-89
2022/01/29 10:42:15;;;;;;;9.77;6.28;;;10.40;99.90;;;;;;5058417;28;20033;-84
2022/01/29 10:44:49;;;;;;;10.73;6.10;;;10.40;99.90;;;;;;5057675;28;20029;-85
2022/01/29 10:47:16;;;;;;;9.30;5.97;;;10.40;99.90;;;;;;5075875;28;20036;-84
2022/01/29 10:49:53;;;;;;;9.55;5.75;;;10.40;99.90;;;;;;5056883;28;20074;-84
2022/01/29 10:52:29;;;;;;;7.57;5.35;;;10.40;99.90;;;;;;5075767;28;20024;-83
2022/01/29 10:55:00;;;;;;;10.48;5.50;;;10.50;99.90;;;;;;5075775;28;20465;-83
2022/01/29 10:57:37;;;;;;;9.90;5.07;;;10.50;99.90;;;;;;5075814;28;20039;-83
2022/01/29 11:00:15;;;;;;;8.13;4.65;;;10.60;99.90;;;;;;5057464;28;20028;-83
2022/01/29 11:02:42;;;;;;;8.98;4.63;;;10.60;99.90;;;;;;5057761;28;20350;-83
2022/01/29 11:05:08;;;;;;;11.35;4.28;;;10.70;99.90;;;;;;5057806;28;20024;-83
2022/01/29 11:07:35;;;;;;;8.13;4.35;;;10.70;99.90;;;;;;5057587;28;20116;-84
2022/01/29 11:10:07;;;;;;;6.80;3.80;;;10.80;99.90;;;;;;5057344;28;20121;-84
2022/01/29 11:12:33;;;;;;;10.98;4.50;;;10.80;99.90;;;;;;5082039;28;20022;-84
2022/01/29 11:15:01;;;;;;;8.82;3.80;;;10.80;99.90;;;;;;5077466;28;20472;-83
2022/01/29 11:17:29;;;;;;;9.32;3.92;;;10.90;99.90;;;;;;5077465;28;20039;-84
2022/01/29 11:19:55;;;;;;;7.90;3.17;;;10.90;99.90;;;;;;5077233;28;20109;-84
2022/01/29 11:22:35;;;;;;;7.57;3.38;;;10.90;99.90;;;;;;5095307;28;20016;-83
2022/01/29 11:25:05;;;;;;;7.82;3.05;;;10.90;99.90;;;;;;5095369;28;20048;-83
2022/01/29 11:27:33;;;;;;;8.70;3.47;;;10.90;99.90;;;;;;5077404;28;20028;-83
2022/01/29 11:30:17;;;;;;;7.00;3.05;;;10.90;99.90;;;;;;5095030;28;20095;-83
2022/01/29 11:32:53;;;;;;;7.88;3.17;;;10.90;99.90;;;;;;5095409;28;20048;-84
2022/01/29 11:35:23;;;;;;;5.85;2.83;;;10.90;99.90;;;;;;5076993;28;20024;-83
2022/01/29 11:38:01;;;;;;;9.32;3.28;;;11.00;99.90;;;;;;5094951;28;20012;-84
2022/01/29 11:40:28;;;;;;;6.75;2.65;;;11.00;99.90;;;;;;5095261;28;20028;-83
2022/01/29 11:43:14;;;;;;;6.05;2.75;;;11.00;99.90;;;;;;5076802;28;20211;-83
2022/01/29 11:45:57;;;;;;;7.25;2.80;;;11.00;99.90;;;;;;5076812;28;20031;-83
2022/01/29 11:50:53;;;;;;;9.85;2.67;;;11.10;99.90;;;;;;5094677;28;20020;-84
2022/01/29 11:53:20;;;;;;;4.75;2.20;;;11.10;99.90;;;;;;5076753;28;20032;-82
2022/01/29 11:55:49;;;;;;;4.25;2.17;;;11.10;99.90;;;;;;5059980;28;20051;-83
2022/01/29 11:58:26;;;;;;;7.78;2.40;;;11.10;99.90;;;;;;5076653;28;20365;-83
2022/01/29 12:01:00;;;;;;;7.43;1.92;;;11.10;99.90;;;;;;5094617;28;20035;-83
2022/01/29 12:09:03;;;;;;;6.07;2.03;;;11.10;99.90;;;;;;5094632;28;20046;-84
2022/01/29 12:11:29;;;;;;;6.95;1.90;;;11.10;99.90;;;;;;5094516;28;20020;-83
2022/01/29 12:14:13;;;;;;;4.88;1.70;;;11.10;99.90;;;;;;5076190;28;20410;-83
2022/01/29 12:16:50;;;;;;;7.35;2.00;;;11.10;99.90;;;;;;5094400;28;20024;-84
2022/01/29 12:19:58;;;;;;;3.95;1.40;;;11.20;99.90;;;;;;5094253;28;20031;-83
2022/01/29 12:22:26;;;;;;;6.70;1.80;;;11.20;99.90;;;;;;5031596;28;20029;-83
2022/01/29 12:24:58;;;;;;;5.57;1.65;;;11.20;99.90;;;;;;5015501;28;20482;-82
2022/01/29 12:27:46;;;;;;;7.90;1.55;;;11.20;99.90;;;;;;5057779;28;20036;-83
2022/01/29 12:30:19;;;;;;;5.10;1.73;;;11.20;99.90;;;;;;5094097;28;20020;-85
2022/01/29 12:33:18;;;;;;;5.85;1.58;;;11.20;99.90;;;;;;5075763;28;20035;-83
2022/01/29 12:35:58;;;;;;;5.20;1.63;;;11.20;99.90;;;;;;5089066;28;20035;-82
2022/01/29 12:38:39;;;;;;;7.32;2.42;;;11.30;99.90;;;;;;5094127;28;20035;-83
2022/01/29 12:41:12;;;;;;;8.70;2.15;;;11.30;99.90;;;;;;5075839;28;20030;-84
2022/01/29 12:44:04;;;;;;;7.20;2.30;;;11.30;99.90;;;;;;5094137;28;20056;-84
2022/01/29 12:46:29;;;;;;;5.85;1.77;;;11.30;99.90;;;;;;5092981;28;20036;-83
2022/01/29 12:49:11;;;;;;;8.13;2.58;;;11.40;99.90;;;;;;5075795;28;20498;-84
2022/01/29 12:51:49;;;;;;;4.85;1.75;;;11.30;99.90;;;;;;5094199;28;20041;-84
2022/01/29 12:54:15;;;;;;;5.07;1.70;;;11.40;99.90;;;;;;5075652;28;20372;-86
2022/01/29 12:56:41;;;;;;;6.35;1.88;;;11.40;99.90;;;;;;5057384;28;20035;-84
2022/01/29 12:59:10;;;;;;;6.85;2.10;;;11.40;99.90;;;;;;5056311;28;20071;-84
2022/01/29 13:01:37;;;;;;;5.63;2.05;;;11.40;99.90;;;;;;5055682;28;20027;-84